createdAt,value
2023-06-21T00:00:19.581Z,70.37
2023-06-21T00:01:22.677Z,69.89
2023-06-21T00:02:24.994Z,69.41
2023-06-21T00:03:27.104Z,69.07
2023-06-21T00:04:29.113Z,69.25
2023-06-21T00:05:32.135Z,70.18
2023-06-21T00:06:35.945Z,70.11
2023-06-21T00:07:39.990Z,69.21
2023-06-21T00:08:41.816Z,69.50
2023-06-21T00:09:43.678Z,69.27
2023-06-21T00:10:45.538Z,69.28
2023-06-21T00:11:47.815Z,69.20
2023-06-21T00:12:50.771Z,68.96
2023-06-21T00:13:56.590Z,69.13
2023-06-21T00:14:58.457Z,69.17
2023-06-21T00:16:00.363Z,68.55
2023-06-21T00:17:02.597Z,68.86
2023-06-21T00:18:04.878Z,68.22
2023-06-21T00:19:07.555Z,69.56
2023-06-21T00:20:11.870Z,68.45
2023-06-21T00:21:15.081Z,67.75
2023-06-21T00:22:22.967Z,67.52
2023-06-21T00:23:25.376Z,67.54
2023-06-21T00:24:27.334Z,67.22
2023-06-21T00:25:29.344Z,66.23
2023-06-21T00:26:31.683Z,66.27
2023-06-21T00:27:33.906Z,66.53
2023-06-21T00:28:36.428Z,65.49
2023-06-21T00:29:39.713Z,64.65
2023-06-21T00:30:41.599Z,65.60
2023-06-21T00:31:43.494Z,65.08
2023-06-21T00:32:47.109Z,64.70
2023-06-21T00:33:49.674Z,65.48
2023-06-21T00:34:51.730Z,65.90
2023-06-21T00:35:53.658Z,66.23
2023-06-21T00:36:55.832Z,66.38
2023-06-21T00:38:00.043Z,65.71
2023-06-21T00:39:02.011Z,66.09
2023-06-21T00:40:08.570Z,66.09
2023-06-21T00:41:10.833Z,66.11
2023-06-21T00:42:12.956Z,66.41
2023-06-21T00:43:18.002Z,66.10
2023-06-21T00:44:21.062Z,66.02
2023-06-21T00:45:23.428Z,65.84
2023-06-21T00:46:25.556Z,66.18
2023-06-21T00:47:27.508Z,66.55
2023-06-21T00:48:30.434Z,66.48
2023-06-21T00:49:34.676Z,66.04
2023-06-21T00:50:39.827Z,66.38
2023-06-21T00:51:43.528Z,67.22
2023-06-21T00:52:45.734Z,68.07
2023-06-21T00:53:48.059Z,68.07
2023-06-21T00:54:50.568Z,67.59
2023-06-21T00:55:52.472Z,67.71
2023-06-21T00:57:00.529Z,67.73
2023-06-21T00:58:02.479Z,66.87
2023-06-21T00:59:05.728Z,67.24
2023-06-21T01:00:10.673Z,67.69
2023-06-21T01:01:12.532Z,68.74
2023-06-21T01:02:14.884Z,68.81
2023-06-21T01:03:18.774Z,69.33
2023-06-21T01:04:22.383Z,68.68
2023-06-21T01:05:26.183Z,68.60
2023-06-21T01:06:49.768Z,68.76
2023-06-21T01:08:05.887Z,69.21
2023-06-21T01:09:33.901Z,69.70
2023-06-21T01:10:58.158Z,70.00
2023-06-21T01:12:28.188Z,69.17
2023-06-21T01:13:45.498Z,68.93
2023-06-21T01:14:59.336Z,70.15
2023-06-21T01:16:19.424Z,70.96
2023-06-21T01:17:22.670Z,70.63
2023-06-21T01:18:27.354Z,70.55
2023-06-21T01:19:41.219Z,70.18
2023-06-21T01:20:54.633Z,69.96
2023-06-21T01:22:00.972Z,69.80
2023-06-21T01:23:35.001Z,70.21
2023-06-21T01:24:55.522Z,71.74
2023-06-21T01:26:20.977Z,70.35
2023-06-21T01:27:30.136Z,70.39
2023-06-21T01:28:42.994Z,69.90
2023-06-21T01:29:49.068Z,69.85
2023-06-21T01:30:54.077Z,70.30
2023-06-21T01:31:57.853Z,70.42
2023-06-21T01:33:00.665Z,69.94
2023-06-21T01:34:05.923Z,70.88
2023-06-21T01:35:11.018Z,70.47
2023-06-21T01:36:13.482Z,70.57
2023-06-21T01:37:15.685Z,70.49
2023-06-21T01:38:17.960Z,71.06
2023-06-21T01:39:20.633Z,71.04
2023-06-21T01:40:22.504Z,71.35
2023-06-21T01:41:29.968Z,71.67
2023-06-21T01:42:32.190Z,70.90
2023-06-21T01:43:35.663Z,70.85
2023-06-21T01:44:37.932Z,72.15
2023-06-21T01:45:40.320Z,72.25
2023-06-21T01:46:43.425Z,71.29
2023-06-21T01:47:46.240Z,71.74
2023-06-21T01:48:49.432Z,72.10
2023-06-21T01:49:51.497Z,72.38
2023-06-21T01:50:53.652Z,72.60
2023-06-21T01:52:09.299Z,71.92
2023-06-21T01:53:15.421Z,71.46
2023-06-21T01:54:21.649Z,71.50
2023-06-21T01:55:24.460Z,71.49
2023-06-21T01:56:27.718Z,72.35
2023-06-21T01:57:36.462Z,72.59
2023-06-21T01:58:38.513Z,72.16
2023-06-21T01:59:42.725Z,72.69
2023-06-21T02:00:45.271Z,72.89
2023-06-21T02:01:51.417Z,73.37
2023-06-21T02:02:54.088Z,72.98
2023-06-21T02:04:00.907Z,73.28
2023-06-21T02:05:03.479Z,73.15
2023-06-21T02:06:06.387Z,73.43
2023-06-21T02:07:09.543Z,73.59
2023-06-21T02:08:17.342Z,73.33
2023-06-21T02:09:21.137Z,73.64
2023-06-21T02:10:26.721Z,73.64
2023-06-21T02:11:29.108Z,73.22
2023-06-21T02:12:34.381Z,73.20
2023-06-21T02:13:37.222Z,73.26
2023-06-21T02:14:39.322Z,72.59
2023-06-21T02:15:45.169Z,72.21
2023-06-21T02:16:47.064Z,72.47
2023-06-21T02:17:52.833Z,72.03
2023-06-21T02:18:55.949Z,71.58
2023-06-21T02:19:57.898Z,71.27
2023-06-21T02:21:00.358Z,71.72
2023-06-21T02:22:03.888Z,71.91
2023-06-21T02:23:06.363Z,72.09
2023-06-21T02:24:08.343Z,73.46
2023-06-21T02:25:14.080Z,73.91
2023-06-21T02:26:17.427Z,74.43
2023-06-21T02:27:19.291Z,73.73
2023-06-21T02:28:21.699Z,73.64
2023-06-21T02:29:23.672Z,74.51
2023-06-21T02:30:26.583Z,74.11
2023-06-21T02:31:28.753Z,74.91
2023-06-21T02:32:30.760Z,74.85
2023-06-21T02:33:33.033Z,74.42
2023-06-21T02:34:35.235Z,73.82
2023-06-21T02:35:38.682Z,73.22
2023-06-21T02:36:41.351Z,73.11
2023-06-21T02:37:43.222Z,72.87
2023-06-21T02:38:46.164Z,74.05
2023-06-21T02:39:48.225Z,74.92
2023-06-21T02:40:50.899Z,74.85
2023-06-21T02:41:53.243Z,75.01
2023-06-21T02:42:55.129Z,74.00
2023-06-21T02:43:57.338Z,73.49
2023-06-21T02:44:59.218Z,73.11
2023-06-21T02:46:03.211Z,73.60
2023-06-21T02:47:05.368Z,73.82
2023-06-21T02:48:08.727Z,74.29
2023-06-21T02:49:12.047Z,74.77
2023-06-21T02:50:17.692Z,73.75
2023-06-21T02:51:21.952Z,73.95
2023-06-21T02:52:23.916Z,74.34
2023-06-21T02:53:27.340Z,74.25
2023-06-21T02:54:29.538Z,74.34
2023-06-21T02:55:31.461Z,74.80
2023-06-21T02:56:33.660Z,74.73
2023-06-21T02:57:35.622Z,75.44
2023-06-21T02:58:37.800Z,75.31
2023-06-21T02:59:39.986Z,75.27
2023-06-21T03:00:42.428Z,75.63
2023-06-21T03:01:48.181Z,74.74
2023-06-21T03:02:53.164Z,74.48
2023-06-21T03:03:55.207Z,75.15
2023-06-21T03:04:57.437Z,75.21
2023-06-21T03:05:59.353Z,75.51
2023-06-21T03:07:02.495Z,76.62
2023-06-21T03:08:05.541Z,76.60
2023-06-21T03:09:07.463Z,76.72
2023-06-21T03:10:10.097Z,76.95
2023-06-21T03:11:13.354Z,76.81
2023-06-21T03:12:15.261Z,76.70
2023-06-21T03:13:17.129Z,76.40
2023-06-21T03:14:19.039Z,75.59
2023-06-21T03:15:21.202Z,75.71
2023-06-21T03:16:23.367Z,76.03
2023-06-21T03:17:25.287Z,75.74
2023-06-21T03:18:27.296Z,75.71
2023-06-21T03:19:29.152Z,75.63
2023-06-21T03:20:32.859Z,75.77
2023-06-21T03:21:35.242Z,74.91
2023-06-21T03:22:37.644Z,74.37
2023-06-21T03:23:39.634Z,74.28
2023-06-21T03:24:42.824Z,74.12
2023-06-21T03:25:45.669Z,73.75
2023-06-21T03:26:48.346Z,73.82
2023-06-21T03:27:50.327Z,73.84
2023-06-21T03:28:52.348Z,73.36
2023-06-21T03:29:54.448Z,73.14
2023-06-21T03:30:58.822Z,73.33
2023-06-21T03:32:02.349Z,72.54
2023-06-21T03:33:04.375Z,73.06
2023-06-21T03:34:07.597Z,72.71
2023-06-21T03:35:10.562Z,72.75
2023-06-21T03:36:12.788Z,72.70
2023-06-21T03:37:14.780Z,72.53
2023-06-21T03:38:18.922Z,72.72
2023-06-21T03:39:21.063Z,72.30
2023-06-21T03:40:23.426Z,73.38
2023-06-21T03:41:25.678Z,72.93
2023-06-21T03:42:28.328Z,73.70
2023-06-21T03:43:30.581Z,73.46
2023-06-21T03:44:33.372Z,73.15
2023-06-21T03:45:35.622Z,73.64
2023-06-21T03:46:38.228Z,73.05
2023-06-21T03:47:41.614Z,72.54
2023-06-21T03:48:44.047Z,72.75
2023-06-21T03:49:46.294Z,72.86
2023-06-21T03:50:50.245Z,72.59
2023-06-21T03:51:52.454Z,72.25
2023-06-21T03:52:56.288Z,72.10
2023-06-21T03:53:58.446Z,72.37
2023-06-21T03:55:03.493Z,72.53
2023-06-21T03:56:05.826Z,72.52
2023-06-21T03:57:08.074Z,72.49
2023-06-21T03:58:10.768Z,72.95
2023-06-21T03:59:12.773Z,72.73
2023-06-21T04:00:15.272Z,73.08
2023-06-21T04:01:17.791Z,73.57
2023-06-21T04:02:22.181Z,74.15
2023-06-21T04:03:24.128Z,73.33
2023-06-21T04:04:26.027Z,72.96
2023-06-21T04:05:27.929Z,73.77
2023-06-21T04:06:31.538Z,73.73
2023-06-21T04:07:34.363Z,73.96
2023-06-21T04:08:36.280Z,73.72
2023-06-21T04:09:38.139Z,73.34
2023-06-21T04:10:40.040Z,73.14
2023-06-21T04:11:41.897Z,73.61
2023-06-21T04:12:44.107Z,74.36
2023-06-21T04:13:49.457Z,73.83
2023-06-21T04:14:52.873Z,73.76
2023-06-21T04:15:54.760Z,73.39
2023-06-21T04:16:58.258Z,73.04
2023-06-21T04:18:02.149Z,72.89
2023-06-21T04:19:04.118Z,73.19
2023-06-21T04:20:12.365Z,74.33
2023-06-21T04:21:14.711Z,74.22
2023-06-21T04:22:16.624Z,73.95
2023-06-21T04:23:19.099Z,73.33
2023-06-21T04:24:21.054Z,73.29
2023-06-21T04:25:24.111Z,73.48
2023-06-21T04:26:26.075Z,74.03
2023-06-21T04:27:27.964Z,75.26
2023-06-21T04:28:30.121Z,75.88
2023-06-21T04:29:32.143Z,76.07
2023-06-21T04:30:35.900Z,75.49
2023-06-21T04:31:39.267Z,74.97
2023-06-21T04:32:48.249Z,74.59
2023-06-21T04:33:52.811Z,74.69
2023-06-21T04:34:54.756Z,74.01
2023-06-21T04:35:58.490Z,73.73
2023-06-21T04:37:06.439Z,73.70
2023-06-21T04:38:08.364Z,72.86
2023-06-21T04:39:10.617Z,71.89
2023-06-21T04:40:18.368Z,72.64
2023-06-21T04:41:21.167Z,73.35
2023-06-21T04:42:23.071Z,73.47
2023-06-21T04:43:26.367Z,73.22
2023-06-21T04:44:29.228Z,73.68
2023-06-21T04:45:31.888Z,73.70
2023-06-21T04:46:37.042Z,73.77
2023-06-21T04:47:39.108Z,74.34
2023-06-21T04:48:41.066Z,74.34
2023-06-21T04:49:44.079Z,73.72
2023-06-21T04:50:46.529Z,73.32
2023-06-21T04:51:48.598Z,73.21
2023-06-21T04:52:51.772Z,73.42
2023-06-21T04:53:53.861Z,73.54
2023-06-21T04:55:00.965Z,73.34
2023-06-21T04:56:02.917Z,72.89
2023-06-21T04:57:13.534Z,72.30
2023-06-21T04:58:16.814Z,72.68
2023-06-21T04:59:19.229Z,73.21
2023-06-21T05:00:21.678Z,73.80
2023-06-21T05:01:23.561Z,73.56
2023-06-21T05:02:26.344Z,73.69
2023-06-21T05:03:28.503Z,73.33
2023-06-21T05:04:31.547Z,72.77
2023-06-21T05:05:35.054Z,72.27
2023-06-21T05:06:41.830Z,71.37
2023-06-21T05:07:43.913Z,69.73
2023-06-21T05:08:45.770Z,69.51
2023-06-21T05:09:47.657Z,69.64
2023-06-21T05:10:49.905Z,68.54
2023-06-21T05:11:51.798Z,66.07
2023-06-21T05:12:53.657Z,65.84
2023-06-21T05:13:55.497Z,66.10
2023-06-21T05:14:57.557Z,66.06
2023-06-21T05:15:59.884Z,65.52
2023-06-21T05:17:01.885Z,66.06
2023-06-21T05:18:06.633Z,65.16
2023-06-21T05:19:08.749Z,64.34
2023-06-21T05:20:11.702Z,64.49
2023-06-21T05:21:14.139Z,64.40
2023-06-21T05:22:16.025Z,64.46
2023-06-21T05:23:17.900Z,63.99
2023-06-21T05:24:19.907Z,63.81
2023-06-21T05:25:22.012Z,64.20
2023-06-21T05:26:24.197Z,64.41
2023-06-21T05:27:26.140Z,64.15
2023-06-21T05:28:27.987Z,64.28
2023-06-21T05:29:29.893Z,64.49
2023-06-21T05:30:31.964Z,63.97
2023-06-21T05:31:34.305Z,62.55
2023-06-21T05:32:36.263Z,63.52
2023-06-21T05:33:38.203Z,63.44
2023-06-21T05:34:40.090Z,63.42
2023-06-21T05:35:41.999Z,63.72
2023-06-21T05:36:44.158Z,62.37
2023-06-21T05:37:46.024Z,61.18
2023-06-21T05:38:48.242Z,60.80
2023-06-21T05:39:50.198Z,61.39
2023-06-21T05:40:52.038Z,60.59
2023-06-21T05:41:54.292Z,61.28
2023-06-21T05:43:02.113Z,60.71
2023-06-21T05:44:04.139Z,61.39
2023-06-21T05:45:08.913Z,60.84
2023-06-21T05:46:10.930Z,60.29
2023-06-21T05:47:13.623Z,58.99
2023-06-21T05:48:15.618Z,59.13
2023-06-21T05:49:19.374Z,59.26
2023-06-21T05:50:21.338Z,59.83
2023-06-21T05:51:23.172Z,59.46
2023-06-21T05:52:25.347Z,59.04
2023-06-21T05:53:27.583Z,59.40
2023-06-21T05:54:29.608Z,59.20
2023-06-21T05:55:31.949Z,59.32
2023-06-21T05:56:38.274Z,59.56
2023-06-21T05:57:40.441Z,59.84
2023-06-21T05:58:42.309Z,59.94
2023-06-21T05:59:44.450Z,58.43
2023-06-21T06:00:46.352Z,58.42
2023-06-21T06:01:48.529Z,58.37
2023-06-21T06:02:50.920Z,59.38
2023-06-21T06:03:52.862Z,58.39
2023-06-21T06:04:56.553Z,59.68
2023-06-21T06:05:59.278Z,59.67
2023-06-21T06:07:01.524Z,59.52
2023-06-21T06:08:03.671Z,59.87
2023-06-21T06:09:06.512Z,59.65
2023-06-21T06:10:09.146Z,59.13
2023-06-21T06:11:11.051Z,58.61
2023-06-21T06:12:13.301Z,58.69
2023-06-21T06:13:15.395Z,58.90
2023-06-21T06:14:17.481Z,59.75
2023-06-21T06:15:19.685Z,60.24
2023-06-21T06:16:21.593Z,59.59
2023-06-21T06:17:23.788Z,58.71
2023-06-21T06:18:25.732Z,59.50
2023-06-21T06:19:27.701Z,59.38
2023-06-21T06:20:30.400Z,58.67
2023-06-21T06:21:32.498Z,58.67
2023-06-21T06:22:35.536Z,58.24
2023-06-21T06:23:37.371Z,57.85
2023-06-21T06:24:39.613Z,57.65
2023-06-21T06:25:41.789Z,58.67
2023-06-21T06:26:43.869Z,58.93
2023-06-21T06:27:46.195Z,58.00
2023-06-21T06:28:48.090Z,58.14
2023-06-21T06:29:50.039Z,58.05
2023-06-21T06:30:52.100Z,56.86
2023-06-21T06:31:54.151Z,57.23
2023-06-21T06:32:56.568Z,58.08
2023-06-21T06:33:58.722Z,56.84
2023-06-21T06:35:00.628Z,56.42
2023-06-21T06:36:02.610Z,56.11
2023-06-21T06:37:13.432Z,57.07
2023-06-21T06:38:17.302Z,56.35
2023-06-21T06:39:19.223Z,55.86
2023-06-21T06:40:21.139Z,55.83
2023-06-21T06:41:22.976Z,55.81
2023-06-21T06:42:25.120Z,55.62
2023-06-21T06:43:27.285Z,55.42
2023-06-21T06:44:29.169Z,55.16
2023-06-21T06:45:31.103Z,55.16
2023-06-21T06:46:33.066Z,55.76
2023-06-21T06:47:35.027Z,56.42
2023-06-21T06:48:37.528Z,55.58
2023-06-21T06:49:39.525Z,55.02
2023-06-21T06:50:43.191Z,55.15
2023-06-21T06:51:46.781Z,56.62
2023-06-21T06:52:49.505Z,54.76
2023-06-21T06:53:51.753Z,54.67
2023-06-21T06:54:53.852Z,54.35
2023-06-21T06:55:56.330Z,54.90
2023-06-21T06:56:58.651Z,54.77
2023-06-21T06:58:06.207Z,54.78
2023-06-21T06:59:08.957Z,55.14
2023-06-21T07:00:13.317Z,54.39
2023-06-21T07:01:16.345Z,53.90
2023-06-21T07:02:18.233Z,53.61
2023-06-21T07:03:20.402Z,54.09
2023-06-21T07:04:22.935Z,54.53
2023-06-21T07:05:25.472Z,54.28
2023-06-21T07:06:27.458Z,54.26
2023-06-21T07:07:29.618Z,53.68
2023-06-21T07:08:31.493Z,54.18
2023-06-21T07:09:34.515Z,53.85
2023-06-21T07:10:36.417Z,54.47
2023-06-21T07:11:38.531Z,53.00
2023-06-21T07:12:40.644Z,53.90
2023-06-21T07:13:43.798Z,54.25
2023-06-21T07:14:46.013Z,54.01
2023-06-21T07:15:47.954Z,53.33
2023-06-21T07:16:50.972Z,52.99
2023-06-21T07:17:52.859Z,53.01
2023-06-21T07:18:54.861Z,51.48
2023-06-21T07:19:57.050Z,52.32
2023-06-21T07:20:58.951Z,52.63
2023-06-21T07:22:00.819Z,52.91
2023-06-21T07:23:02.749Z,52.77
2023-06-21T07:24:04.738Z,53.07
2023-06-21T07:25:07.427Z,50.67
2023-06-21T07:26:10.417Z,49.89
2023-06-21T07:27:12.430Z,50.60
2023-06-21T07:28:14.363Z,50.39
2023-06-21T07:29:16.247Z,50.23
2023-06-21T07:30:21.495Z,50.87
2023-06-21T07:31:24.014Z,50.99
2023-06-21T07:32:31.776Z,50.69
2023-06-21T07:33:34.075Z,51.02
2023-06-21T07:34:36.134Z,50.08
2023-06-21T07:35:38.336Z,49.05
2023-06-21T07:36:42.009Z,49.05
2023-06-21T07:37:44.697Z,48.13
2023-06-21T07:38:47.756Z,48.75
2023-06-21T07:39:55.018Z,49.97
2023-06-21T07:40:57.619Z,49.54
2023-06-21T07:42:13.180Z,49.38
2023-06-21T07:43:16.048Z,48.88
2023-06-21T07:44:18.949Z,49.55
2023-06-21T07:45:20.876Z,49.87
2023-06-21T07:46:23.087Z,49.62
2023-06-21T07:47:25.201Z,48.45
2023-06-21T07:48:28.499Z,48.33
2023-06-21T07:49:30.429Z,48.62
2023-06-21T07:50:32.548Z,47.90
2023-06-21T07:51:34.733Z,48.12
2023-06-21T07:52:36.631Z,47.93
2023-06-21T07:53:38.506Z,47.87
2023-06-21T07:54:40.399Z,47.25
2023-06-21T07:55:42.290Z,47.28
2023-06-21T07:56:44.574Z,47.35
2023-06-21T07:57:46.826Z,47.27
2023-06-21T07:58:49.158Z,47.25
2023-06-21T07:59:51.146Z,47.44
2023-06-21T08:00:53.066Z,47.84
2023-06-21T08:01:55.286Z,47.12
2023-06-21T08:02:57.669Z,46.01
2023-06-21T08:04:01.328Z,46.25
2023-06-21T08:05:03.520Z,46.18
2023-06-21T08:06:05.412Z,46.42
2023-06-21T08:07:07.608Z,46.42
2023-06-21T08:08:09.659Z,46.25
2023-06-21T08:09:11.561Z,46.25
2023-06-21T08:10:14.108Z,47.03
2023-06-21T08:11:16.097Z,46.23
2023-06-21T08:12:18.428Z,46.84
2023-06-21T08:13:23.781Z,44.56
2023-06-21T08:14:25.777Z,45.49
2023-06-21T08:15:27.853Z,45.23
2023-06-21T08:16:29.992Z,45.54
2023-06-21T08:17:32.396Z,45.75
2023-06-21T08:18:35.826Z,45.30
2023-06-21T08:19:37.778Z,43.76
2023-06-21T08:20:41.869Z,44.65
2023-06-21T08:21:46.313Z,43.79
2023-06-21T08:22:48.785Z,43.00
2023-06-21T08:23:50.682Z,42.34
2023-06-21T08:24:52.655Z,42.38
2023-06-21T08:25:54.496Z,42.02
2023-06-21T08:26:56.550Z,40.91
2023-06-21T08:27:58.700Z,40.91
2023-06-21T08:29:00.595Z,41.87
2023-06-21T08:30:02.563Z,41.96
2023-06-21T08:31:04.651Z,41.67
2023-06-21T08:32:08.330Z,41.35
2023-06-21T08:33:13.654Z,42.12
2023-06-21T08:34:16.484Z,42.77
2023-06-21T08:35:18.385Z,42.67
2023-06-21T08:36:20.497Z,42.31
2023-06-21T08:37:26.216Z,42.82
2023-06-21T08:38:28.978Z,42.74
2023-06-21T08:39:32.490Z,43.43
2023-06-21T08:40:37.266Z,43.73
2023-06-21T08:41:40.347Z,43.45
2023-06-21T08:42:42.194Z,41.47
2023-06-21T08:43:44.365Z,41.51
2023-06-21T08:44:47.665Z,42.21
2023-06-21T08:45:50.653Z,42.13
2023-06-21T08:46:54.325Z,41.37
2023-06-21T08:48:02.071Z,42.02
2023-06-21T08:49:06.984Z,41.45
2023-06-21T08:50:13.109Z,41.19
2023-06-21T08:51:16.262Z,41.69
2023-06-21T08:52:22.975Z,41.16
2023-06-21T08:53:37.842Z,40.31
2023-06-21T08:54:43.873Z,41.42
2023-06-21T08:55:45.903Z,40.86
2023-06-21T08:56:56.935Z,40.28
2023-06-21T08:58:02.077Z,40.57
2023-06-21T08:59:07.074Z,40.94
2023-06-21T09:00:11.942Z,39.53
2023-06-21T09:01:15.825Z,40.91
2023-06-21T09:02:41.153Z,41.27
2023-06-21T09:03:59.583Z,41.24
2023-06-21T09:05:07.902Z,40.52
2023-06-21T09:06:19.322Z,40.03
2023-06-21T09:07:22.971Z,39.59
2023-06-21T09:08:25.018Z,38.62
2023-06-21T09:09:27.887Z,38.74
2023-06-21T09:10:31.227Z,38.35
2023-06-21T09:11:37.704Z,38.55
2023-06-21T09:12:41.386Z,38.82
2023-06-21T09:13:45.486Z,39.19
2023-06-21T09:14:47.440Z,39.51
2023-06-21T09:15:51.480Z,39.38
2023-06-21T09:16:54.046Z,39.64
2023-06-21T09:17:57.669Z,40.24
2023-06-21T09:18:59.956Z,40.31
2023-06-21T09:20:03.825Z,39.43
2023-06-21T09:21:07.669Z,38.07
2023-06-21T09:22:11.842Z,37.71
2023-06-21T09:23:13.790Z,36.79
2023-06-21T09:24:15.707Z,37.14
2023-06-21T09:25:17.641Z,37.75
2023-06-21T09:26:19.630Z,37.33
2023-06-21T09:27:21.867Z,36.35
2023-06-21T09:28:24.337Z,36.27
2023-06-21T09:29:27.086Z,36.52
2023-06-21T09:30:37.890Z,36.98
2023-06-21T09:31:40.685Z,36.53
2023-06-21T09:32:43.402Z,37.21
2023-06-21T09:33:47.285Z,37.86
2023-06-21T09:34:50.454Z,37.29
2023-06-21T09:35:52.697Z,39.12
2023-06-21T09:36:55.313Z,38.84
2023-06-21T09:37:57.627Z,39.30
2023-06-21T09:39:12.952Z,39.93
2023-06-21T09:40:14.875Z,39.13
2023-06-21T09:41:18.942Z,38.93
2023-06-21T09:42:23.271Z,38.67
2023-06-21T09:43:25.486Z,38.40
2023-06-21T09:44:27.416Z,38.33
2023-06-21T09:45:29.279Z,38.48
2023-06-21T09:46:31.320Z,36.76
2023-06-21T09:47:33.373Z,37.58
2023-06-21T09:48:38.270Z,37.64
2023-06-21T09:49:49.435Z,35.87
2023-06-21T09:50:51.417Z,36.52
2023-06-21T09:51:53.914Z,35.77
2023-06-21T09:52:55.785Z,36.33
2023-06-21T09:53:58.015Z,36.82
2023-06-21T09:55:00.569Z,38.10
2023-06-21T09:56:03.620Z,38.12
2023-06-21T09:57:07.768Z,37.90
2023-06-21T09:58:09.730Z,37.39
2023-06-21T09:59:21.601Z,37.58
2023-06-21T10:00:23.669Z,39.02
2023-06-21T10:01:25.903Z,38.65
2023-06-21T10:02:28.890Z,38.75
2023-06-21T10:03:31.048Z,39.22
2023-06-21T10:04:43.756Z,38.94
2023-06-21T10:05:59.512Z,38.33
2023-06-21T10:07:04.857Z,37.76
2023-06-21T10:08:07.026Z,38.67
2023-06-21T10:09:10.723Z,38.54
2023-06-21T10:10:13.826Z,39.18
2023-06-21T10:11:19.102Z,39.08
2023-06-21T10:12:21.428Z,37.86
2023-06-21T10:13:31.394Z,38.62
2023-06-21T10:14:33.978Z,38.29
2023-06-21T10:15:35.851Z,37.81
2023-06-21T10:16:38.851Z,38.12
2023-06-21T10:17:52.210Z,38.01
2023-06-21T10:19:00.347Z,38.65
2023-06-21T10:20:04.105Z,39.62
2023-06-21T10:21:08.775Z,39.47
2023-06-21T10:22:15.426Z,39.61
2023-06-21T10:23:19.101Z,40.36
2023-06-21T10:24:24.528Z,40.17
2023-06-21T10:25:28.387Z,40.53
2023-06-21T10:26:32.693Z,40.23
2023-06-21T10:27:35.948Z,39.81
2023-06-21T10:28:43.572Z,39.37
2023-06-21T10:29:49.469Z,40.28
2023-06-21T10:30:57.573Z,40.32
2023-06-21T10:32:01.623Z,42.21
2023-06-21T10:33:04.471Z,43.15
2023-06-21T10:34:09.381Z,41.96
2023-06-21T10:35:14.839Z,42.50
2023-06-21T10:36:23.176Z,41.32
2023-06-21T10:37:49.767Z,41.38
2023-06-21T10:38:55.017Z,42.04
2023-06-21T10:40:10.906Z,42.88
2023-06-21T10:41:17.829Z,43.01
2023-06-21T10:42:20.952Z,42.75
2023-06-21T10:43:23.077Z,42.98
2023-06-21T10:44:25.410Z,43.26
2023-06-21T10:45:29.892Z,43.34
2023-06-21T10:46:33.868Z,44.23
2023-06-21T10:47:37.627Z,44.89
2023-06-21T10:48:40.932Z,44.30
2023-06-21T10:49:44.233Z,44.59
2023-06-21T10:50:47.114Z,44.88
2023-06-21T10:51:51.078Z,45.04
2023-06-21T10:52:58.313Z,45.50
2023-06-21T10:54:02.102Z,45.69
2023-06-21T10:55:04.923Z,45.52
2023-06-21T10:56:08.939Z,45.75
2023-06-21T10:57:11.757Z,44.91
2023-06-21T10:58:14.635Z,45.42
2023-06-21T10:59:18.593Z,45.31
2023-06-21T11:00:22.740Z,45.36
2023-06-21T11:01:25.096Z,44.76
2023-06-21T11:02:28.731Z,44.08
2023-06-21T11:03:30.725Z,44.47
2023-06-21T11:05:10.801Z,45.91
2023-06-21T11:06:37.902Z,46.71
2023-06-21T11:07:55.765Z,46.94
2023-06-21T11:08:57.865Z,45.96
2023-06-21T11:10:07.359Z,47.09
2023-06-21T11:11:09.333Z,47.19
2023-06-21T11:12:13.268Z,47.26
2023-06-21T11:13:16.391Z,47.02
2023-06-21T11:14:31.337Z,47.22
2023-06-21T11:15:34.989Z,47.42
2023-06-21T11:16:40.366Z,47.44
2023-06-21T11:17:42.677Z,47.71
2023-06-21T11:18:50.218Z,48.46
2023-06-21T11:19:52.103Z,49.41
2023-06-21T11:20:58.258Z,49.86
2023-06-21T11:22:15.501Z,49.87
2023-06-21T11:23:19.596Z,50.52
2023-06-21T11:24:22.398Z,49.94
2023-06-21T11:25:25.355Z,50.24
2023-06-21T11:26:27.736Z,48.13
2023-06-21T11:27:30.042Z,47.76
2023-06-21T11:28:33.690Z,48.28
2023-06-21T11:29:38.950Z,48.64
2023-06-21T11:31:00.950Z,49.26
2023-06-21T11:32:16.406Z,49.39
2023-06-21T11:33:21.380Z,48.39
2023-06-21T11:34:31.185Z,49.21
2023-06-21T11:35:51.629Z,49.48
2023-06-21T11:36:53.595Z,48.04
2023-06-21T11:37:58.081Z,48.13
2023-06-21T11:39:02.937Z,48.08
2023-06-21T11:40:07.008Z,47.87
2023-06-21T11:41:37.709Z,47.88
2023-06-21T11:42:48.492Z,47.55
2023-06-21T11:43:57.017Z,48.15
2023-06-21T11:45:17.125Z,47.88
2023-06-21T11:46:26.085Z,48.41
2023-06-21T11:47:28.093Z,47.11
2023-06-21T11:48:31.404Z,46.46
2023-06-21T11:49:34.737Z,47.03
2023-06-21T11:50:48.789Z,47.81
2023-06-21T11:51:52.674Z,47.52
2023-06-21T11:52:55.766Z,46.83
2023-06-21T11:53:58.136Z,45.78
2023-06-21T11:55:12.166Z,46.69
2023-06-21T11:56:17.547Z,46.34
2023-06-21T11:57:19.806Z,47.05
2023-06-21T11:58:23.061Z,46.50
2023-06-21T11:59:26.180Z,46.64
2023-06-21T12:00:28.331Z,45.50
2023-06-21T12:01:31.772Z,46.46
2023-06-21T12:02:33.849Z,46.62
2023-06-21T12:03:35.947Z,47.07
2023-06-21T12:04:40.488Z,46.94
2023-06-21T12:05:53.187Z,45.46
2023-06-21T12:06:58.865Z,45.32
2023-06-21T12:08:00.860Z,45.40
2023-06-21T12:09:03.602Z,46.08
2023-06-21T12:10:06.403Z,45.40
2023-06-21T12:11:10.134Z,44.81
2023-06-21T12:12:12.541Z,44.01
2023-06-21T12:13:21.482Z,44.37
2023-06-21T12:14:23.942Z,44.80
2023-06-21T12:15:25.940Z,44.88
2023-06-21T12:16:28.080Z,45.23
2023-06-21T12:17:30.481Z,44.89
2023-06-21T12:18:33.866Z,44.65
2023-06-21T12:19:35.779Z,45.19
2023-06-21T12:20:39.018Z,44.71
2023-06-21T12:21:40.899Z,45.86
2023-06-21T12:22:43.113Z,47.11
2023-06-21T12:23:45.028Z,45.83
2023-06-21T12:24:46.932Z,44.63
2023-06-21T12:25:50.680Z,44.74
2023-06-21T12:26:55.093Z,44.90
2023-06-21T12:27:58.137Z,44.81
2023-06-21T12:29:00.321Z,45.50
2023-06-21T12:30:02.575Z,46.19
2023-06-21T12:31:06.352Z,46.51
2023-06-21T12:32:12.224Z,46.20
2023-06-21T12:33:15.883Z,45.72
2023-06-21T12:34:18.590Z,45.29
2023-06-21T12:35:20.665Z,45.03
2023-06-21T12:36:25.143Z,45.45
2023-06-21T12:37:27.150Z,46.02
2023-06-21T12:38:29.331Z,46.03
2023-06-21T12:39:31.335Z,46.94
2023-06-21T12:40:33.331Z,47.27
2023-06-21T12:41:35.702Z,47.47
2023-06-21T12:42:37.632Z,46.88
2023-06-21T12:43:44.157Z,45.72
2023-06-21T12:44:46.031Z,45.43
2023-06-21T12:45:47.893Z,45.40
2023-06-21T12:46:49.981Z,44.85
2023-06-21T12:47:53.070Z,44.61
2023-06-21T12:48:59.970Z,44.04
2023-06-21T12:50:01.991Z,44.42
2023-06-21T12:51:04.374Z,44.63
2023-06-21T12:52:06.710Z,45.39
2023-06-21T12:53:08.614Z,44.28
2023-06-21T12:54:19.064Z,43.52
2023-06-21T12:55:21.044Z,42.09
2023-06-21T12:56:25.792Z,42.35
2023-06-21T12:57:29.191Z,43.58
2023-06-21T12:58:31.329Z,43.87
2023-06-21T12:59:33.961Z,43.84
2023-06-21T13:00:35.852Z,43.61
2023-06-21T13:01:38.991Z,43.35
2023-06-21T13:02:40.975Z,43.63
2023-06-21T13:03:43.523Z,42.97
2023-06-21T13:04:48.614Z,42.18
2023-06-21T13:05:50.503Z,43.42
2023-06-21T13:06:52.411Z,43.67
2023-06-21T13:07:54.298Z,43.69
2023-06-21T13:08:57.709Z,42.38
2023-06-21T13:09:59.941Z,42.89
2023-06-21T13:11:01.939Z,42.73
2023-06-21T13:12:04.061Z,43.49
2023-06-21T13:13:05.958Z,44.07
2023-06-21T13:14:09.560Z,44.21
2023-06-21T13:15:12.783Z,42.67
2023-06-21T13:16:15.806Z,42.00
2023-06-21T13:17:17.765Z,42.13
2023-06-21T13:18:19.938Z,42.88
2023-06-21T13:19:21.855Z,43.17
2023-06-21T13:20:25.327Z,42.94
2023-06-21T13:21:29.374Z,42.10
2023-06-21T13:22:31.553Z,42.63
2023-06-21T13:23:35.567Z,43.56
2023-06-21T13:24:37.551Z,43.03
2023-06-21T13:25:40.012Z,42.33
2023-06-21T13:26:41.899Z,42.60
2023-06-21T13:27:46.273Z,42.27
2023-06-21T13:28:48.243Z,42.98
2023-06-21T13:29:50.316Z,43.11
2023-06-21T13:30:52.649Z,42.76
2023-06-21T13:31:55.060Z,41.99
2023-06-21T13:32:57.072Z,41.45
2023-06-21T13:33:58.999Z,41.45
2023-06-21T13:35:00.905Z,42.39
2023-06-21T13:36:03.263Z,41.81
2023-06-21T13:37:05.437Z,42.48
2023-06-21T13:38:07.323Z,42.85
2023-06-21T13:39:09.188Z,41.79
2023-06-21T13:40:11.261Z,42.80
2023-06-21T13:41:13.496Z,42.11
2023-06-21T13:42:15.464Z,41.61
2023-06-21T13:43:17.431Z,41.95